We bring you up!

Munich Aviation Company

Munich Aviation Company

Munich Aviation Company

Munich Aviation Company

Sie finden uns auch auf: Munich Aviation Company auf Instagram

Flugwetter Augsburg

[Quelle: ADDS]
METAR
EDMA 251050Z VRB01KT CAVOK 14/04 Q1030 =
EDMA 250800Z 2509/2518 VRB03KT CAVOK
TAF
EDMA 250800Z 2509/2518 VRB03KT CAVOK =

Kontakt